createdAt,value
2018-07-01T00:00:14.853Z,1.40
2018-07-01T00:03:48.072Z,1.30
2018-07-01T00:07:21.313Z,1.67
2018-07-01T00:10:54.602Z,1.70
2018-07-01T00:14:27.598Z,1.60
2018-07-01T00:18:00.593Z,1.50
2018-07-01T00:21:33.575Z,1.30
2018-07-01T00:25:06.921Z,1.30
2018-07-01T00:28:40.167Z,1.50
2018-07-01T00:32:13.445Z,1.60
2018-07-01T00:35:46.705Z,1.57
2018-07-01T00:39:19.964Z,1.40
2018-07-01T00:42:53.239Z,1.20
2018-07-01T00:46:26.480Z,1.50
2018-07-01T00:49:59.729Z,1.20
2018-07-01T00:53:32.971Z,1.53
2018-07-01T00:57:06.224Z,1.33
2018-07-01T01:00:39.475Z,2.00
2018-07-01T01:04:12.568Z,1.40
2018-07-01T01:07:45.823Z,1.70
2018-07-01T01:11:19.072Z,1.20
2018-07-01T01:14:52.049Z,1.20
2018-07-01T01:18:25.300Z,1.60
2018-07-01T01:21:58.564Z,1.47
2018-07-01T01:25:31.801Z,1.83
2018-07-01T01:29:05.064Z,1.70
2018-07-01T01:32:38.325Z,1.70
2018-07-01T01:36:11.579Z,1.60
2018-07-01T01:39:44.915Z,1.37
2018-07-01T01:43:26.332Z,1.47
2018-07-01T01:47:01.029Z,1.03
2018-07-01T01:50:38.919Z,1.87
2018-07-01T01:54:17.445Z,1.33
2018-07-01T01:58:01.379Z,1.60
2018-07-01T02:01:41.962Z,1.27
2018-07-01T02:05:20.461Z,1.57
2018-07-01T02:08:57.436Z,1.63
2018-07-01T02:12:30.701Z,1.90
2018-07-01T02:16:07.368Z,1.60
2018-07-01T02:19:40.633Z,1.80
2018-07-01T02:23:18.184Z,2.07
2018-07-01T02:26:51.431Z,1.43
2018-07-01T02:30:24.648Z,1.60
2018-07-01T02:33:57.888Z,2.23
2018-07-01T02:37:31.128Z,1.60
2018-07-01T02:41:04.422Z,1.10
2018-07-01T02:44:37.677Z,1.77
2018-07-01T02:48:10.915Z,1.60
2018-07-01T02:51:44.181Z,1.63
2018-07-01T02:55:17.436Z,1.40
2018-07-01T02:58:50.706Z,1.53
2018-07-01T03:02:23.985Z,1.17
2018-07-01T03:05:57.243Z,1.60
2018-07-01T03:09:30.252Z,1.80
2018-07-01T03:13:03.520Z,1.90
2018-07-01T03:16:36.760Z,2.23
2018-07-01T03:20:10.018Z,1.40
2018-07-01T03:23:43.264Z,2.00
2018-07-01T03:27:16.522Z,1.87
2018-07-01T03:30:49.767Z,1.70
2018-07-01T03:34:23.012Z,1.97
2018-07-01T03:37:56.240Z,1.93
2018-07-01T03:41:29.487Z,2.03
2018-07-01T03:45:02.792Z,1.90
2018-07-01T03:48:36.045Z,1.47
2018-07-01T03:52:09.290Z,2.07
2018-07-01T03:55:42.539Z,1.40
2018-07-01T03:59:15.789Z,1.57
2018-07-01T04:02:49.039Z,1.93
2018-07-01T04:06:22.281Z,1.40
2018-07-01T04:09:55.524Z,1.70
2018-07-01T04:13:28.779Z,1.70
2018-07-01T04:17:02.053Z,1.77
2018-07-01T04:20:35.307Z,2.13
2018-07-01T04:24:08.565Z,1.90
2018-07-01T04:27:41.841Z,1.50
2018-07-01T04:31:15.140Z,1.70
2018-07-01T04:34:48.384Z,1.63
2018-07-01T04:38:21.656Z,1.67
2018-07-01T04:41:54.932Z,1.93
2018-07-01T04:45:27.924Z,1.43
2018-07-01T04:49:01.157Z,2.10
2018-07-01T04:52:34.401Z,1.43
2018-07-01T04:56:07.680Z,1.50
2018-07-01T04:59:40.929Z,1.53
2018-07-01T05:03:13.909Z,1.60
2018-07-01T05:06:47.169Z,1.90
2018-07-01T05:10:20.432Z,2.00
2018-07-01T05:13:54.016Z,1.63
2018-07-01T05:17:27.407Z,2.00
2018-07-01T05:21:00.655Z,1.33
2018-07-01T05:24:33.910Z,2.00
2018-07-01T05:28:07.169Z,2.10
2018-07-01T05:31:40.440Z,1.50
2018-07-01T05:35:13.881Z,1.60
2018-07-01T05:38:47.398Z,1.70
2018-07-01T05:42:20.652Z,2.10
2018-07-01T05:45:53.905Z,1.93
2018-07-01T05:49:27.179Z,2.10
2018-07-01T05:53:00.527Z,1.87
2018-07-01T05:56:33.800Z,1.40
2018-07-01T06:00:07.368Z,1.87
2018-07-01T06:03:40.705Z,1.70
2018-07-01T06:07:13.999Z,1.90
2018-07-01T06:10:47.357Z,1.70
2018-07-01T06:14:20.622Z,1.97
2018-07-01T06:17:53.968Z,2.30
2018-07-01T06:21:27.246Z,1.83
2018-07-01T06:25:01.044Z,1.60
2018-07-01T06:28:34.305Z,1.57
2018-07-01T06:32:07.544Z,1.50
2018-07-01T06:35:40.800Z,1.50
2018-07-01T06:39:14.116Z,1.27
2018-07-01T06:42:47.478Z,1.40
2018-07-01T06:46:21.160Z,1.40
2018-07-01T06:49:54.408Z,1.10
2018-07-01T06:53:27.644Z,1.23
2018-07-01T06:57:01.160Z,1.50
2018-07-01T07:00:34.440Z,1.10
2018-07-01T07:04:07.674Z,1.47
2018-07-01T07:07:40.919Z,1.40
2018-07-01T07:11:14.202Z,1.30
2018-07-01T07:14:47.503Z,5.53
2018-07-01T07:18:20.660Z,2.60
2018-07-01T07:21:53.929Z,1.70
2018-07-01T07:25:27.201Z,1.53
2018-07-01T07:29:00.435Z,1.37
2018-07-01T07:32:33.707Z,1.20
2018-07-01T07:36:06.968Z,1.33
2018-07-01T07:39:40.215Z,3.07
2018-07-01T07:43:13.458Z,5.90
2018-07-01T07:46:46.728Z,4.63
2018-07-01T07:50:19.973Z,2.83
2018-07-01T07:53:53.199Z,2.67
2018-07-01T07:57:26.466Z,2.50
2018-07-01T08:00:59.708Z,1.80
2018-07-01T08:04:33.015Z,1.60
2018-07-01T08:08:06.432Z,1.53
2018-07-01T08:11:40.649Z,1.60
2018-07-01T08:15:13.916Z,2.13
2018-07-01T08:18:47.142Z,1.60
2018-07-01T08:22:20.412Z,1.77
2018-07-01T08:25:53.408Z,1.67
2018-07-01T08:29:26.401Z,1.30
2018-07-01T08:33:00.693Z,1.10
2018-07-01T08:36:33.977Z,1.63
2018-07-01T08:40:07.242Z,1.10
2018-07-01T08:43:40.497Z,1.70
2018-07-01T08:47:13.763Z,1.30
2018-07-01T08:50:47.021Z,1.17
2018-07-01T08:54:20.488Z,1.60
2018-07-01T08:57:53.747Z,1.20
2018-07-01T09:01:27.003Z,1.07
2018-07-01T09:05:00.251Z,1.23
2018-07-01T09:08:33.568Z,1.37
2018-07-01T09:12:06.800Z,1.30
2018-07-01T09:15:40.074Z,1.27
2018-07-01T09:19:13.340Z,1.00
2018-07-01T09:22:46.590Z,1.60
2018-07-01T09:26:20.685Z,1.40
2018-07-01T09:30:00.740Z,1.90
2018-07-01T09:33:33.973Z,3.07
2018-07-01T09:37:07.220Z,1.27
2018-07-01T09:40:40.480Z,1.27
2018-07-01T09:44:13.760Z,1.43
2018-07-01T09:47:47.004Z,1.23
2018-07-01T09:51:20.251Z,1.20
2018-07-01T09:54:53.496Z,1.30
2018-07-01T09:58:26.764Z,1.30
2018-07-01T10:02:00.027Z,1.37
2018-07-01T10:05:33.284Z,1.30
2018-07-01T10:09:08.705Z,1.43
2018-07-01T10:12:42.002Z,1.20
2018-07-01T10:16:16.118Z,1.50
2018-07-01T10:19:49.360Z,1.27
2018-07-01T10:23:22.597Z,1.27
2018-07-01T10:26:55.848Z,1.37
2018-07-01T10:30:29.108Z,1.60
2018-07-01T10:34:02.405Z,1.50
2018-07-01T10:37:35.670Z,1.80
2018-07-01T10:41:08.937Z,1.10
2018-07-01T10:44:42.208Z,1.50
2018-07-01T10:48:15.445Z,1.43
2018-07-01T10:51:48.692Z,1.30
2018-07-01T10:55:21.965Z,1.37
2018-07-01T10:58:55.234Z,1.97
2018-07-01T11:02:28.496Z,1.40
2018-07-01T11:06:01.854Z,1.10
2018-07-01T11:09:35.035Z,1.40
2018-07-01T11:13:08.290Z,1.47
2018-07-01T11:16:41.549Z,1.13
2018-07-01T11:20:14.828Z,1.40
2018-07-01T11:23:48.072Z,1.60
2018-07-01T11:27:21.402Z,1.60
2018-07-01T11:30:55.009Z,1.20
2018-07-01T11:34:28.294Z,1.10
2018-07-01T11:38:01.588Z,1.33
2018-07-01T11:41:34.841Z,1.20
2018-07-01T11:45:08.108Z,1.30
2018-07-01T11:48:41.351Z,1.40
2018-07-01T11:52:14.758Z,1.63
2018-07-01T11:55:48.103Z,1.40
2018-07-01T11:59:21.344Z,1.83
2018-07-01T12:02:54.597Z,1.90
2018-07-01T12:06:27.644Z,1.57
2018-07-01T12:10:00.887Z,3.20
2018-07-01T12:13:34.079Z,1.57
2018-07-01T12:17:07.565Z,1.70
2018-07-01T12:20:40.926Z,1.60
2018-07-01T12:24:14.156Z,1.30
2018-07-01T12:27:47.481Z,1.57
2018-07-01T12:31:20.740Z,1.57
2018-07-01T12:34:54.128Z,1.40
2018-07-01T12:38:27.312Z,1.93
2018-07-01T12:42:00.643Z,1.53
2018-07-01T12:45:33.888Z,1.30
2018-07-01T12:49:07.141Z,1.43
2018-07-01T12:52:40.393Z,1.47
2018-07-01T12:56:13.667Z,1.30
2018-07-01T12:59:46.908Z,1.50
2018-07-01T13:03:20.348Z,1.57
2018-07-01T13:06:53.593Z,1.53
2018-07-01T13:10:26.872Z,1.93
2018-07-01T13:14:00.120Z,1.43
2018-07-01T13:17:33.432Z,1.37
2018-07-01T13:21:06.700Z,2.03
2018-07-01T13:24:39.691Z,1.37
2018-07-01T13:28:12.951Z,1.00
2018-07-01T13:31:46.208Z,1.17
2018-07-01T13:35:19.200Z,1.60
2018-07-01T13:38:52.333Z,1.17
2018-07-01T13:42:25.607Z,1.23
2018-07-01T13:45:59.565Z,1.47
2018-07-01T13:49:32.829Z,1.37
2018-07-01T13:53:06.140Z,1.50
2018-07-01T13:56:39.404Z,1.47
2018-07-01T14:00:12.426Z,1.30
2018-07-01T14:03:45.682Z,1.20
2018-07-01T14:07:19.028Z,1.17
2018-07-01T14:10:52.297Z,1.20
2018-07-01T14:14:25.557Z,1.47
2018-07-01T14:17:58.803Z,1.40
2018-07-01T14:21:31.812Z,1.30
2018-07-01T14:25:05.992Z,1.00
2018-07-01T14:28:39.264Z,1.30
2018-07-01T14:32:12.521Z,1.50
2018-07-01T14:35:45.533Z,1.30
2018-07-01T14:39:18.775Z,1.30
2018-07-01T14:42:52.025Z,1.20
2018-07-01T14:46:25.278Z,1.47
2018-07-01T14:49:58.600Z,1.20
2018-07-01T14:53:32.546Z,2.17
2018-07-01T14:57:05.864Z,1.17
2018-07-01T15:00:39.137Z,1.57
2018-07-01T15:04:12.107Z,1.20
2018-07-01T15:07:45.356Z,1.10
2018-07-01T15:11:18.620Z,1.30
2018-07-01T15:14:51.856Z,1.00
2018-07-01T15:18:25.096Z,1.00
2018-07-01T15:21:58.367Z,1.60
2018-07-01T15:25:31.660Z,1.30
2018-07-01T15:29:04.906Z,1.10
2018-07-01T15:32:38.195Z,1.30
2018-07-01T15:36:11.591Z,1.03
2018-07-01T15:39:44.941Z,1.50
2018-07-01T15:43:18.304Z,1.00
2018-07-01T15:46:51.627Z,1.27
2018-07-01T15:50:25.168Z,1.40
2018-07-01T15:53:58.532Z,1.50
2018-07-01T15:57:32.289Z,1.30
2018-07-01T16:01:05.823Z,1.27
2018-07-01T16:04:39.097Z,1.70
2018-07-01T16:08:12.514Z,1.53
2018-07-01T16:11:45.809Z,0.97
2018-07-01T16:15:19.679Z,1.23
2018-07-01T16:18:53.032Z,1.10
2018-07-01T16:22:26.260Z,0.90
2018-07-01T16:26:05.011Z,1.53
2018-07-01T16:29:38.544Z,1.80
2018-07-01T16:33:12.037Z,1.73
2018-07-01T16:36:45.388Z,1.40
2018-07-01T16:40:18.696Z,2.23
2018-07-01T16:43:52.348Z,2.13
2018-07-01T16:47:25.768Z,4.27
2018-07-01T16:50:59.042Z,5.27
2018-07-01T16:54:32.050Z,6.73
2018-07-01T16:58:05.355Z,8.07
2018-07-01T17:01:38.619Z,6.47
2018-07-01T17:05:11.864Z,6.63
2018-07-01T17:08:45.129Z,5.87
2018-07-01T17:12:18.389Z,4.23
2018-07-01T17:15:51.800Z,5.30
2018-07-01T17:19:25.144Z,4.33
2018-07-01T17:22:58.140Z,9.63
2018-07-01T17:26:31.391Z,7.10
2018-07-01T17:30:04.659Z,3.83
2018-07-01T17:33:37.929Z,3.27
2018-07-01T17:37:11.172Z,2.60
2018-07-01T17:40:44.768Z,2.50
2018-07-01T17:44:18.020Z,2.47
2018-07-01T17:47:53.457Z,1.67
2018-07-01T17:51:26.962Z,1.47
2018-07-01T17:55:01.150Z,1.83
2018-07-01T17:58:34.636Z,1.80
2018-07-01T18:02:08.108Z,1.70
2018-07-01T18:05:41.417Z,1.43
2018-07-01T18:09:14.508Z,1.83
2018-07-01T18:12:48.038Z,1.50
2018-07-01T18:16:21.348Z,2.10
2018-07-01T18:19:54.597Z,1.50
2018-07-01T18:23:53.699Z,1.37
2018-07-01T18:27:02.081Z,1.40
2018-07-01T18:30:35.492Z,1.57
2018-07-01T18:34:09.038Z,1.67
2018-07-01T18:37:42.428Z,1.33
2018-07-01T18:41:15.756Z,1.30
2018-07-01T18:44:49.308Z,1.80
2018-07-01T18:48:23.982Z,1.20
2018-07-01T18:51:57.300Z,1.63
2018-07-01T18:55:30.600Z,1.37
2018-07-01T18:59:03.661Z,1.40
2018-07-01T19:02:37.114Z,1.53
2018-07-01T19:06:10.207Z,1.73
2018-07-01T19:09:43.528Z,1.33
2018-07-01T19:13:16.822Z,1.70
2018-07-01T19:16:50.208Z,1.57
2018-07-01T19:20:23.300Z,1.40
2018-07-01T19:23:56.549Z,1.53
2018-07-01T19:27:29.813Z,1.50
2018-07-01T19:31:03.092Z,1.50
2018-07-01T19:34:36.428Z,1.60
2018-07-01T19:38:10.788Z,1.60
2018-07-01T19:41:44.404Z,1.90
2018-07-01T19:45:17.649Z,1.60
2018-07-01T19:48:51.175Z,1.70
2018-07-01T19:52:24.614Z,1.47
2018-07-01T19:55:57.913Z,1.90
2018-07-01T19:59:31.393Z,1.83
2018-07-01T20:03:04.694Z,1.83
2018-07-01T20:06:38.042Z,1.70
2018-07-01T20:10:11.508Z,1.60
2018-07-01T20:13:44.903Z,1.50
2018-07-01T20:17:18.516Z,1.30
2018-07-01T20:20:52.163Z,1.37
2018-07-01T20:24:25.547Z,1.60
2018-07-01T20:27:59.109Z,1.70
2018-07-01T20:31:32.598Z,1.47
2018-07-01T20:35:05.861Z,1.20
2018-07-01T20:38:39.279Z,1.70
2018-07-01T20:42:12.625Z,1.10
2018-07-01T20:45:45.902Z,1.27
2018-07-01T20:49:19.570Z,1.47
2018-07-01T20:52:53.948Z,1.40
2018-07-01T20:56:27.285Z,1.20
2018-07-01T21:00:01.645Z,1.30
2018-07-01T21:03:35.338Z,0.80
2018-07-01T21:07:08.645Z,1.00
2018-07-01T21:10:42.061Z,1.43
2018-07-01T21:14:15.496Z,1.10
2018-07-01T21:17:48.909Z,1.13
2018-07-01T21:21:22.240Z,1.53
2018-07-01T21:24:55.564Z,1.30
2018-07-01T21:28:29.028Z,1.30
2018-07-01T21:32:02.294Z,1.00
2018-07-01T21:35:35.985Z,1.00
2018-07-01T21:39:10.903Z,1.10
2018-07-01T21:42:44.214Z,0.70
2018-07-01T21:46:17.648Z,1.17
2018-07-01T21:49:50.921Z,1.13
2018-07-01T21:53:24.225Z,0.97
2018-07-01T21:56:57.544Z,1.00
2018-07-01T22:00:32.994Z,0.87
2018-07-01T22:04:06.226Z,1.60
2018-07-01T22:07:39.512Z,0.90
2018-07-01T22:11:34.104Z,1.50
2018-07-01T22:15:19.148Z,0.93
2018-07-01T22:18:52.401Z,1.40
2018-07-01T22:22:25.653Z,1.10
2018-07-01T22:25:58.921Z,1.10
2018-07-01T22:29:32.204Z,1.03
2018-07-01T22:33:05.718Z,1.27
2018-07-01T22:36:38.993Z,2.43
2018-07-01T22:40:12.240Z,2.30
2018-07-01T22:43:45.496Z,2.60
2018-07-01T22:47:18.880Z,2.00
2018-07-01T22:50:52.138Z,2.77
2018-07-01T22:54:25.438Z,2.23
2018-07-01T22:57:58.740Z,2.00
2018-07-01T23:01:32.301Z,2.10
2018-07-01T23:05:05.540Z,1.13
2018-07-01T23:08:38.814Z,1.37
2018-07-01T23:12:12.088Z,1.03
2018-07-01T23:15:45.378Z,1.40
2018-07-01T23:19:18.643Z,1.10
2018-07-01T23:22:51.900Z,1.40
2018-07-01T23:26:24.904Z,1.57
2018-07-01T23:29:58.011Z,1.10
2018-07-01T23:33:31.302Z,0.90
2018-07-01T23:37:04.598Z,1.17
2018-07-01T23:40:37.873Z,1.30
2018-07-01T23:44:11.164Z,1.40
2018-07-01T23:47:44.447Z,1.13
2018-07-01T23:51:17.714Z,1.20
2018-07-01T23:54:50.952Z,1.37
2018-07-01T23:58:24.230Z,1.20
